Time;durP1;ratioP1;P1;durP2;ratioP2;P2;SDS_P1;SDS_P2;PMS_P1;PMS_P2;Temp;Humidity;BMP_temperature;BMP_pressure;BME280_temperature;BME280_humidity;BME280_pressure;Samples;Min_cycle;Max_cycle;Signal;HPM_P1;HPM_P2
2023/01/09 00:01:45;;;;;;;17.88;16.38;;;;;;;;;;5038874;28;20383;-85
2023/01/09 00:04:11;;;;;;;21.50;19.38;;;;;;;;;;5052553;28;20397;-85
2023/01/09 00:06:39;;;;;;;20.48;18.60;;;;;;;;;;5052672;28;20427;-85
2023/01/09 00:09:05;;;;;;;19.98;18.08;;;;;;;;;;5052660;28;20377;-84
2023/01/09 00:11:31;;;;;;;21.85;19.75;;;;;;;;;;5052358;28;20399;-85
2023/01/09 00:13:57;;;;;;;21.88;19.58;;;;;;;;;;5052484;28;20381;-85
2023/01/09 00:16:23;;;;;;;20.50;18.70;;;;;;;;;;5051083;28;20387;-85
2023/01/09 00:18:52;;;;;;;18.88;17.33;;;;;;;;;;5033368;28;20383;-85
2023/01/09 00:21:18;;;;;;;18.58;16.98;;;;;;;;;;5032269;28;20380;-85
2023/01/09 00:23:44;;;;;;;18.17;16.58;;;;;;;;;;5052132;28;21035;-85
2023/01/09 00:26:17;;;;;;;18.90;17.30;;;;;;;;;;5052277;28;20461;-85
2023/01/09 00:28:43;;;;;;;17.92;16.52;;;;;;;;;;5041539;28;20384;-85
2023/01/09 00:31:09;;;;;;;20.23;18.42;;;;;;;;;;5032304;28;20390;-85
2023/01/09 00:33:38;;;;;;;20.40;18.58;;;;;;;;;;5052035;28;20855;-85
2023/01/09 00:36:04;;;;;;;24.33;22.02;;;;;;;;;;5052179;28;20459;-86
2023/01/09 00:38:31;;;;;;;22.75;20.55;;;;;;;;;;5052313;28;20385;-85
2023/01/09 00:40:57;;;;;;;22.58;20.45;;;;;;;;;;5051804;28;20401;-85
2023/01/09 00:43:26;;;;;;;22.38;20.27;;;;;;;;;;5052164;28;20909;-85
2023/01/09 00:45:52;;;;;;;23.98;21.73;;;;;;;;;;5052136;28;20381;-85
2023/01/09 00:48:27;;;;;;;20.38;18.52;;;;;;;;;;5051994;28;20878;-85
2023/01/09 00:50:54;;;;;;;19.30;17.60;;;;;;;;;;5051898;28;20425;-85
2023/01/09 00:53:22;;;;;;;16.73;15.32;;;;;;;;;;5051917;28;20381;-85
2023/01/09 00:55:48;;;;;;;13.48;12.38;;;;;;;;;;5052012;28;20781;-85
2023/01/09 00:58:14;;;;;;;13.10;12.10;;;;;;;;;;5051792;28;20867;-85
2023/01/09 01:00:40;;;;;;;13.05;12.05;;;;;;;;;;5045396;28;20469;-86
2023/01/09 01:03:06;;;;;;;12.90;11.90;;;;;;;;;;5031718;28;20540;-85
2023/01/09 01:08:18;;;;;;;12.55;11.55;;;;;;;;;;5051514;28;20894;-86
2023/01/09 01:10:45;;;;;;;10.05;9.32;;;;;;;;;;5051805;28;20417;-86
2023/01/09 01:13:11;;;;;;;10.05;9.23;;;;;;;;;;5051514;28;20377;-85
2023/01/09 01:15:38;;;;;;;9.77;9.07;;;;;;;;;;5051673;28;20385;-85
2023/01/09 01:18:04;;;;;;;7.90;7.32;;;;;;;;;;5033640;28;20374;-85
2023/01/09 01:20:30;;;;;;;7.97;7.37;;;;;;;;;;5051396;28;20385;-85
2023/01/09 01:22:56;;;;;;;7.75;7.13;;;;;;;;;;5051484;28;20466;-85
2023/01/09 01:25:22;;;;;;;6.83;6.33;;;;;;;;;;5033821;28;20856;-85
2023/01/09 01:27:48;;;;;;;6.45;6.03;;;;;;;;;;5031630;28;20848;-85
2023/01/09 01:30:15;;;;;;;5.90;5.43;;;;;;;;;;5031419;28;20871;-85
2023/01/09 01:32:41;;;;;;;5.88;5.47;;;;;;;;;;5031494;28;20390;-84
2023/01/09 01:35:08;;;;;;;5.18;4.78;;;;;;;;;;5031459;28;20391;-85
2023/01/09 01:37:35;;;;;;;5.60;5.20;;;;;;;;;;5031159;28;20910;-84
2023/01/09 01:40:01;;;;;;;5.90;5.50;;;;;;;;;;5028190;28;20827;-85
2023/01/09 01:42:27;;;;;;;6.88;6.38;;;;;;;;;;5029334;28;20391;-85
2023/01/09 01:45:01;;;;;;;7.32;6.72;;;;;;;;;;5029589;28;20379;-84
2023/01/09 01:47:38;;;;;;;7.90;7.32;;;;;;;;;;5029676;28;20912;-84
2023/01/09 01:50:07;;;;;;;9.23;8.52;;;;;;;;;;5029709;28;20402;-84
2023/01/09 01:52:34;;;;;;;8.00;7.40;;;;;;;;;;5027703;28;20391;-85
2023/01/09 01:55:01;;;;;;;7.70;7.18;;;;;;;;;;5030264;28;20382;-85
2023/01/09 01:57:27;;;;;;;8.20;7.55;;;;;;;;;;5031226;28;20852;-84
2023/01/09 01:59:55;;;;;;;7.03;6.53;;;;;;;;;;5033722;28;20391;-84
2023/01/09 02:02:23;;;;;;;6.72;6.22;;;;;;;;;;5026608;28;20383;-84
2023/01/09 02:04:50;;;;;;;6.18;5.68;;;;;;;;;;5034813;28;20398;-85
2023/01/09 02:07:16;;;;;;;5.95;5.50;;;;;;;;;;5034896;28;20375;-85
2023/01/09 02:09:45;;;;;;;6.13;5.72;;;;;;;;;;5034705;28;20394;-85
2023/01/09 02:12:29;;;;;;;7.22;6.72;;;;;;;;;;5034794;28;20406;-85
2023/01/09 02:14:58;;;;;;;7.35;6.85;;;;;;;;;;5054525;28;20382;-85
2023/01/09 02:17:24;;;;;;;8.95;8.18;;;;;;;;;;5054524;28;20734;-85
2023/01/09 02:20:09;;;;;;;8.43;7.82;;;;;;;;;;5054570;28;20381;-84
2023/01/09 02:22:42;;;;;;;7.97;7.17;;;;;;;;;;5041295;28;20383;-85
2023/01/09 02:25:36;;;;;;;6.80;6.20;;;;;;;;;;5034621;28;20427;-85
2023/01/09 02:28:17;;;;;;;5.65;5.25;;;;;;;;;;5034607;28;20375;-84
2023/01/09 02:30:46;;;;;;;5.32;4.93;;;;;;;;;;5032579;28;20454;-85
2023/01/09 02:33:30;;;;;;;5.43;5.03;;;;;;;;;;5034522;28;20384;-84
2023/01/09 02:36:02;;;;;;;4.03;3.72;;;;;;;;;;5032095;28;20412;-84
2023/01/09 02:38:35;;;;;;;4.35;4.05;;;;;;;;;;5034232;28;20468;-84
2023/01/09 02:41:20;;;;;;;3.70;3.40;;;;;;;;;;5033985;28;20422;-85
2023/01/09 02:43:46;;;;;;;3.50;3.20;;;;;;;;;;5034113;28;20407;-84
2023/01/09 02:46:19;;;;;;;3.00;2.75;;;;;;;;;;5034266;28;20721;-85
2023/01/09 02:48:46;;;;;;;2.60;2.40;;;;;;;;;;5040181;28;21145;-85
2023/01/09 02:51:31;;;;;;;2.75;2.55;;;;;;;;;;5023796;28;20453;-85
2023/01/09 02:54:00;;;;;;;2.22;1.95;;;;;;;;;;5031252;28;20519;-85
2023/01/09 02:56:41;;;;;;;5.68;1.63;;;;;;;;;;5033857;28;20390;-85
2023/01/09 02:59:07;;;;;;;1.60;1.25;;;;;;;;;;5034167;28;20418;-85
2023/01/09 03:01:43;;;;;;;1.05;0.88;;;;;;;;;;5033943;28;20916;-85
2023/01/09 03:04:20;;;;;;;1.10;1.00;;;;;;;;;;5033249;28;20475;-85
2023/01/09 03:06:46;;;;;;;0.70;0.70;;;;;;;;;;5034018;28;20420;-85
2023/01/09 03:09:14;;;;;;;1.45;1.15;;;;;;;;;;5035670;28;20900;-84
2023/01/09 03:11:46;;;;;;;1.65;0.77;;;;;;;;;;5032158;28;20432;-84
2023/01/09 03:14:15;;;;;;;0.82;0.70;;;;;;;;;;5032514;28;20906;-85
2023/01/09 03:16:42;;;;;;;0.82;0.65;;;;;;;;;;5034238;28;20444;-84
2023/01/09 03:19:11;;;;;;;1.20;0.80;;;;;;;;;;5022870;28;20381;-84
2023/01/09 03:21:37;;;;;;;0.70;0.70;;;;;;;;;;5033783;28;20386;-85
2023/01/09 03:24:03;;;;;;;0.55;0.50;;;;;;;;;;5032273;28;20403;-84
2023/01/09 03:26:29;;;;;;;0.93;0.50;;;;;;;;;;5033823;28;20379;-84
2023/01/09 03:28:56;;;;;;;0.40;0.30;;;;;;;;;;5035610;28;20871;-84
2023/01/09 03:31:22;;;;;;;0.50;0.30;;;;;;;;;;5053361;28;20385;-83
2023/01/09 03:33:48;;;;;;;0.40;0.20;;;;;;;;;;5053348;28;20385;-84
2023/01/09 03:36:15;;;;;;;0.25;0.20;;;;;;;;;;5053297;28;20389;-84
2023/01/09 03:38:41;;;;;;;0.40;0.30;;;;;;;;;;5035639;28;20399;-84
2023/01/09 03:41:07;;;;;;;0.20;0.20;;;;;;;;;;5053078;28;20402;-83
2023/01/09 03:43:34;;;;;;;0.35;0.20;;;;;;;;;;5053154;28;20479;-84
2023/01/09 03:46:00;;;;;;;0.15;0.15;;;;;;;;;;5053038;28;20379;-84
2023/01/09 03:48:26;;;;;;;0.20;0.10;;;;;;;;;;5053125;28;20424;-84
2023/01/09 03:50:53;;;;;;;0.30;0.20;;;;;;;;;;5052854;28;20862;-84
2023/01/09 03:53:19;;;;;;;0.20;0.20;;;;;;;;;;5053013;28;20914;-84
2023/01/09 03:55:46;;;;;;;0.20;0.20;;;;;;;;;;5052992;28;20381;-84
2023/01/09 03:58:13;;;;;;;0.25;0.20;;;;;;;;;;5040537;28;20890;-85
2023/01/09 04:00:39;;;;;;;0.10;0.10;;;;;;;;;;5032773;28;20445;-84
2023/01/09 04:03:06;;;;;;;0.20;0.20;;;;;;;;;;5032781;28;20414;-84
2023/01/09 04:05:32;;;;;;;0.22;0.20;;;;;;;;;;5032776;28;20415;-84
2023/01/09 04:07:58;;;;;;;1.10;0.20;;;;;;;;;;5032773;28;20379;-84
2023/01/09 04:10:24;;;;;;;0.60;0.25;;;;;;;;;;5034524;28;20739;-85
2023/01/09 04:12:50;;;;;;;0.50;0.30;;;;;;;;;;5052689;28;20385;-84
2023/01/09 04:15:16;;;;;;;0.20;0.20;;;;;;;;;;5052489;28;20381;-84
2023/01/09 04:17:42;;;;;;;0.30;0.30;;;;;;;;;;5052566;28;20523;-84
2023/01/09 04:20:09;;;;;;;0.33;0.30;;;;;;;;;;5034475;28;20398;-84
2023/01/09 04:22:35;;;;;;;0.30;0.30;;;;;;;;;;5052034;28;20392;-84
2023/01/09 04:25:01;;;;;;;0.38;0.38;;;;;;;;;;5052407;28;20408;-84
2023/01/09 04:27:27;;;;;;;0.50;0.32;;;;;;;;;;5052263;28;20470;-84
2023/01/09 04:29:53;;;;;;;0.88;0.40;;;;;;;;;;5048753;28;20377;-84
2023/01/09 04:32:19;;;;;;;1.35;0.75;;;;;;;;;;5035895;28;20726;-84
2023/01/09 04:34:45;;;;;;;1.13;0.73;;;;;;;;;;5031142;28;20478;-84
2023/01/09 04:37:11;;;;;;;0.70;0.40;;;;;;;;;;5028803;28;20386;-83
2023/01/09 04:39:37;;;;;;;0.60;0.60;;;;;;;;;;5031902;28;20472;-83
2023/01/09 04:42:03;;;;;;;0.50;0.38;;;;;;;;;;5032240;28;20811;-83
2023/01/09 04:44:29;;;;;;;0.52;0.20;;;;;;;;;;5031987;28;20916;-83
2023/01/09 04:46:57;;;;;;;0.30;0.30;;;;;;;;;;5052104;28;20374;-84
2023/01/09 04:49:23;;;;;;;0.95;0.30;;;;;;;;;;5034033;28;21007;-83
2023/01/09 04:51:49;;;;;;;0.30;0.30;;;;;;;;;;5052016;28;20378;-84
2023/01/09 04:54:16;;;;;;;1.05;0.40;;;;;;;;;;5051921;28;20385;-82
2023/01/09 04:56:42;;;;;;;0.35;0.20;;;;;;;;;;5051936;28;20858;-84
2023/01/09 04:59:08;;;;;;;0.20;0.20;;;;;;;;;;5051943;28;20442;-83
2023/01/09 05:01:34;;;;;;;0.47;0.25;;;;;;;;;;5040369;28;20452;-83
2023/01/09 05:04:00;;;;;;;0.65;0.40;;;;;;;;;;5031954;28;20399;-83
2023/01/09 05:06:26;;;;;;;0.40;0.20;;;;;;;;;;5031905;28;20379;-84
2023/01/09 05:08:52;;;;;;;1.07;0.20;;;;;;;;;;5031853;28;20383;-83
2023/01/09 05:11:18;;;;;;;0.28;0.28;;;;;;;;;;5031725;28;20379;-83
2023/01/09 05:13:44;;;;;;;0.50;0.20;;;;;;;;;;5030003;28;20383;-83
2023/01/09 05:16:10;;;;;;;0.85;0.30;;;;;;;;;;5020417;28;20876;-83
2023/01/09 05:18:36;;;;;;;0.80;0.20;;;;;;;;;;5031762;28;20391;-83
2023/01/09 05:21:03;;;;;;;0.47;0.28;;;;;;;;;;5031771;28;20422;-84
2023/01/09 05:23:29;;;;;;;0.30;0.30;;;;;;;;;;5031659;28;20904;-83
2023/01/09 05:25:55;;;;;;;1.30;0.22;;;;;;;;;;5029495;28;20404;-83
2023/01/09 05:28:21;;;;;;;0.20;0.20;;;;;;;;;;5014935;28;20862;-83
2023/01/09 05:30:47;;;;;;;0.60;0.30;;;;;;;;;;5016585;28;20394;-84
2023/01/09 05:33:13;;;;;;;1.20;0.30;;;;;;;;;;5031686;28;20891;-84
2023/01/09 05:35:39;;;;;;;0.55;0.35;;;;;;;;;;5035445;28;20383;-84
2023/01/09 05:38:05;;;;;;;0.70;0.40;;;;;;;;;;5034528;28;20391;-84
2023/01/09 05:40:31;;;;;;;0.90;0.30;;;;;;;;;;5034544;28;20497;-84
2023/01/09 05:42:57;;;;;;;0.30;0.30;;;;;;;;;;5033970;28;20433;-84
2023/01/09 05:45:23;;;;;;;1.20;0.30;;;;;;;;;;5035595;28;20563;-84
2023/01/09 05:47:49;;;;;;;1.30;0.40;;;;;;;;;;5035411;28;20469;-84
2023/01/09 05:50:15;;;;;;;1.33;0.38;;;;;;;;;;5035282;28;20379;-85
2023/01/09 05:52:41;;;;;;;0.75;0.40;;;;;;;;;;5033919;28;20753;-84
2023/01/09 05:55:07;;;;;;;2.80;0.50;;;;;;;;;;5035337;28;20385;-85
2023/01/09 05:57:33;;;;;;;1.23;0.40;;;;;;;;;;5035208;28;20387;-84
2023/01/09 05:59:59;;;;;;;1.92;0.50;;;;;;;;;;5027926;28;20389;-84
2023/01/09 06:02:25;;;;;;;1.17;0.30;;;;;;;;;;5035055;28;20383;-84
2023/01/09 06:04:51;;;;;;;2.33;0.60;;;;;;;;;;5035011;28;20383;-85
2023/01/09 06:07:17;;;;;;;2.00;0.60;;;;;;;;;;5036942;28;20453;-84
2023/01/09 06:09:43;;;;;;;1.58;0.30;;;;;;;;;;5054772;28;20420;-85
2023/01/09 06:12:09;;;;;;;1.20;0.30;;;;;;;;;;5055016;28;20413;-84
2023/01/09 06:14:35;;;;;;;1.48;0.45;;;;;;;;;;5054841;28;20397;-84
2023/01/09 06:17:02;;;;;;;2.50;0.70;;;;;;;;;;5055829;28;20680;-84
2023/01/09 06:19:27;;;;;;;3.42;0.50;;;;;;;;;;5058775;28;20770;-84
2023/01/09 06:21:53;;;;;;;4.67;0.60;;;;;;;;;;5057053;28;20394;-84
2023/01/09 06:24:19;;;;;;;1.70;0.50;;;;;;;;;;5054819;28;20496;-84
2023/01/09 06:26:45;;;;;;;2.53;0.63;;;;;;;;;;5054895;28;20851;-84
2023/01/09 06:29:11;;;;;;;2.05;0.52;;;;;;;;;;5036701;28;20385;-86
2023/01/09 06:31:37;;;;;;;2.63;0.70;;;;;;;;;;5054759;28;20389;-85
2023/01/09 06:34:03;;;;;;;1.77;0.70;;;;;;;;;;5036983;28;20408;-86
2023/01/09 06:36:29;;;;;;;2.25;0.52;;;;;;;;;;5054898;28;20382;-86
2023/01/09 06:38:55;;;;;;;3.25;0.80;;;;;;;;;;5026460;28;20395;-86
2023/01/09 06:41:21;;;;;;;2.08;0.60;;;;;;;;;;5031734;28;20410;-85
2023/01/09 06:43:47;;;;;;;2.53;0.63;;;;;;;;;;5035292;28;20402;-85
2023/01/09 06:46:13;;;;;;;1.50;0.70;;;;;;;;;;5034200;28;20383;-86
2023/01/09 06:48:39;;;;;;;4.30;1.00;;;;;;;;;;5034503;28;20517;-86
2023/01/09 06:51:05;;;;;;;2.83;0.82;;;;;;;;;;5034310;28;20462;-86
2023/01/09 06:53:31;;;;;;;2.20;0.50;;;;;;;;;;5041922;28;21000;-86
2023/01/09 06:55:57;;;;;;;1.67;0.80;;;;;;;;;;5036202;28;20389;-85
2023/01/09 06:58:23;;;;;;;3.77;0.70;;;;;;;;;;5054225;28;20385;-85
2023/01/09 07:00:49;;;;;;;2.05;0.60;;;;;;;;;;5046413;28;20394;-84
2023/01/09 07:03:20;;;;;;;2.85;0.65;;;;;;;;;;5035023;28;20967;-84
2023/01/09 07:05:46;;;;;;;3.10;0.98;;;;;;;;;;5054035;28;20423;-84
2023/01/09 07:08:13;;;;;;;2.33;0.70;;;;;;;;;;5053883;28;20468;-84
2023/01/09 07:10:39;;;;;;;2.20;0.70;;;;;;;;;;5032073;28;20399;-84
2023/01/09 07:13:05;;;;;;;1.98;0.77;;;;;;;;;;5030987;28;20433;-85
2023/01/09 07:15:31;;;;;;;3.58;0.90;;;;;;;;;;5033788;28;20383;-86
2023/01/09 07:17:58;;;;;;;2.50;0.80;;;;;;;;;;5053644;28;20476;-86
2023/01/09 07:20:24;;;;;;;3.40;0.63;;;;;;;;;;5053538;28;20394;-81
2023/01/09 07:22:50;;;;;;;2.08;0.80;;;;;;;;;;5053540;28;20405;-81
2023/01/09 07:25:16;;;;;;;2.58;0.77;;;;;;;;;;5053681;28;20386;-81
2023/01/09 07:27:42;;;;;;;1.73;0.60;;;;;;;;;;5053643;28;20377;-81
2023/01/09 07:30:08;;;;;;;1.70;0.70;;;;;;;;;;5053496;28;20384;-80
2023/01/09 07:32:34;;;;;;;3.00;0.70;;;;;;;;;;5053357;28;20392;-81
2023/01/09 07:35:00;;;;;;;2.10;0.60;;;;;;;;;;5053388;28;20389;-81
2023/01/09 07:37:26;;;;;;;3.17;0.73;;;;;;;;;;5053267;28;20374;-80
2023/01/09 07:39:52;;;;;;;1.33;0.60;;;;;;;;;;5052983;28;20413;-80
2023/01/09 07:42:18;;;;;;;2.10;0.80;;;;;;;;;;5053219;28;20921;-80
2023/01/09 07:44:44;;;;;;;4.50;0.90;;;;;;;;;;5053104;28;20497;-80
2023/01/09 07:47:10;;;;;;;1.67;0.70;;;;;;;;;;5035225;28;20524;-80
2023/01/09 07:49:36;;;;;;;1.90;0.80;;;;;;;;;;5048807;28;20385;-80
2023/01/09 07:52:03;;;;;;;1.15;0.50;;;;;;;;;;5025540;28;20391;-80
2023/01/09 07:54:29;;;;;;;2.25;0.68;;;;;;;;;;5052842;28;20389;-82
2023/01/09 07:56:55;;;;;;;2.00;0.60;;;;;;;;;;5052282;28;20376;-83
2023/01/09 07:59:22;;;;;;;2.55;0.60;;;;;;;;;;5052806;28;20376;-83
2023/01/09 08:01:48;;;;;;;4.10;0.80;;;;;;;;;;5044050;28;20385;-82
2023/01/09 08:04:14;;;;;;;1.23;0.60;;;;;;;;;;5039719;28;20402;-83
2023/01/09 08:06:40;;;;;;;2.40;0.90;;;;;;;;;;5034693;28;20388;-83
2023/01/09 08:09:06;;;;;;;1.73;0.50;;;;;;;;;;5052644;28;20385;-83
2023/01/09 08:11:31;;;;;;;2.00;0.60;;;;;;;;;;5034811;28;20385;-82
2023/01/09 08:13:57;;;;;;;1.83;0.60;;;;;;;;;;5052455;28;20386;-83
2023/01/09 08:16:24;;;;;;;2.17;0.70;;;;;;;;;;5052581;28;20866;-83
2023/01/09 08:18:49;;;;;;;3.08;1.20;;;;;;;;;;5052445;28;20386;-84
2023/01/09 08:21:15;;;;;;;2.30;1.10;;;;;;;;;;5052502;28;20397;-84
2023/01/09 08:23:44;;;;;;;2.15;1.00;;;;;;;;;;5052307;28;20436;-83
2023/01/09 08:26:10;;;;;;;1.88;1.02;;;;;;;;;;5052408;28;20446;-84
2023/01/09 08:28:36;;;;;;;1.67;0.95;;;;;;;;;;5052329;28;20377;-84
2023/01/09 08:31:02;;;;;;;1.83;0.70;;;;;;;;;;5052221;28;20369;-84
2023/01/09 08:33:28;;;;;;;1.23;0.50;;;;;;;;;;5039369;28;20392;-84
2023/01/09 08:35:54;;;;;;;2.50;0.67;;;;;;;;;;5034269;28;20886;-83
2023/01/09 08:38:21;;;;;;;0.93;0.60;;;;;;;;;;5052100;28;20875;-83
2023/01/09 08:40:47;;;;;;;1.75;0.57;;;;;;;;;;5052960;28;20420;-84
2023/01/09 08:48:43;;;;;;;4.05;2.22;;;;;;;;;;5052109;28;20965;-83
2023/01/09 08:51:09;;;;;;;4.57;1.48;;;;;;;;;;5051741;28;20755;-83
2023/01/09 08:53:35;;;;;;;1.88;0.95;;;;;;;;;;5027164;28;20949;-84
2023/01/09 08:56:02;;;;;;;2.25;0.73;;;;;;;;;;5034137;28;21063;-84
2023/01/09 08:58:29;;;;;;;1.55;0.85;;;;;;;;;;5052083;28;20447;-84
2023/01/09 09:00:55;;;;;;;2.38;0.80;;;;;;;;;;5043546;28;20915;-83
2023/01/09 09:03:21;;;;;;;3.10;1.02;;;;;;;;;;5031427;28;20800;-84
2023/01/09 09:05:47;;;;;;;2.20;0.88;;;;;;;;;;5032048;28;20379;-83
2023/01/09 09:08:15;;;;;;;2.20;0.80;;;;;;;;;;5031905;28;20379;-83
2023/01/09 09:10:41;;;;;;;2.75;0.65;;;;;;;;;;5051445;28;20378;-83
2023/01/09 09:13:07;;;;;;;1.90;0.90;;;;;;;;;;5033742;28;20447;-84
2023/01/09 09:15:33;;;;;;;6.93;3.03;;;;;;;;;;5051626;28;20862;-83
2023/01/09 09:18:01;;;;;;;4.15;2.40;;;;;;;;;;5033115;28;20387;-84
2023/01/09 09:20:37;;;;;;;4.60;2.60;;;;;;;;;;5031591;28;20420;-85
2023/01/09 09:23:03;;;;;;;4.88;2.35;;;;;;;;;;5031646;28;20439;-84
2023/01/09 09:25:30;;;;;;;3.42;2.05;;;;;;;;;;5031607;28;20383;-84
2023/01/09 09:27:56;;;;;;;3.30;1.40;;;;;;;;;;5031586;28;20387;-83
2023/01/09 09:30:22;;;;;;;2.30;0.98;;;;;;;;;;5031760;28;20535;-83
2023/01/09 09:32:48;;;;;;;2.83;0.85;;;;;;;;;;5031723;28;20407;-84
2023/01/09 09:35:19;;;;;;;1.83;0.80;;;;;;;;;;5033431;28;20469;-84
2023/01/09 09:37:52;;;;;;;2.63;0.82;;;;;;;;;;5051490;28;20513;-83
2023/01/09 09:40:30;;;;;;;1.85;0.60;;;;;;;;;;5051527;28;20452;-84
2023/01/09 09:45:57;;;;;;;2.70;1.02;;;;;;;;;;5054054;28;20430;-83
2023/01/09 09:48:36;;;;;;;3.95;1.30;;;;;;;;;;5056355;28;20512;-84
2023/01/09 09:51:20;;;;;;;2.53;1.20;;;;;;;;;;5053017;28;20486;-83
2023/01/09 09:53:47;;;;;;;3.15;1.20;;;;;;;;;;5052155;28;20471;-84
2023/01/09 09:56:14;;;;;;;2.58;0.82;;;;;;;;;;5042821;28;20390;-83
2023/01/09 09:58:41;;;;;;;2.53;1.13;;;;;;;;;;5032043;28;20395;-83
2023/01/09 10:01:08;;;;;;;1.95;0.70;;;;;;;;;;5031529;28;20403;-84
2023/01/09 10:03:37;;;;;;;2.20;0.60;;;;;;;;;;5031474;28;20425;-84
2023/01/09 10:06:09;;;;;;;3.08;0.80;;;;;;;;;;5031552;28;20420;-84
2023/01/09 10:08:44;;;;;;;1.88;0.70;;;;;;;;;;5031495;28;20386;-84
2023/01/09 10:11:15;;;;;;;2.33;0.57;;;;;;;;;;5031339;28;20440;-84
2023/01/09 10:16:39;;;;;;;3.28;0.60;;;;;;;;;;5051306;28;20860;-84
2023/01/09 10:19:20;;;;;;;2.30;0.73;;;;;;;;;;5033372;28;20401;-83
2023/01/09 10:22:01;;;;;;;1.20;0.43;;;;;;;;;;5054849;28;20394;-83
2023/01/09 10:24:49;;;;;;;2.15;0.63;;;;;;;;;;5054697;28;20435;-84
2023/01/09 10:27:31;;;;;;;1.38;0.60;;;;;;;;;;5054821;28;20921;-85
2023/01/09 10:30:02;;;;;;;1.92;0.57;;;;;;;;;;5054619;28;20410;-84
2023/01/09 10:32:35;;;;;;;1.38;0.60;;;;;;;;;;5054640;28;20385;-85
2023/01/09 10:35:19;;;;;;;1.85;0.60;;;;;;;;;;5047699;28;20386;-85
2023/01/09 10:37:47;;;;;;;3.13;0.70;;;;;;;;;;5034549;28;20428;-85
2023/01/09 10:40:13;;;;;;;2.30;0.80;;;;;;;;;;5034279;28;20509;-85
2023/01/09 10:42:44;;;;;;;1.75;0.70;;;;;;;;;;5016111;28;20385;-85
2023/01/09 10:45:13;;;;;;;2.30;0.90;;;;;;;;;;5054470;28;20974;-85
2023/01/09 10:47:41;;;;;;;1.73;0.82;;;;;;;;;;5054314;28;20422;-84
2023/01/09 10:50:19;;;;;;;2.92;0.93;;;;;;;;;;5054306;28;20434;-84
2023/01/09 10:52:46;;;;;;;2.87;1.10;;;;;;;;;;5048020;28;20544;-84
2023/01/09 10:55:32;;;;;;;3.38;1.25;;;;;;;;;;5034313;28;21105;-85
2023/01/09 10:58:00;;;;;;;2.60;0.88;;;;;;;;;;5017653;28;20934;-85
2023/01/09 11:00:27;;;;;;;2.08;0.70;;;;;;;;;;5034015;28;20439;-85
2023/01/09 11:02:53;;;;;;;1.77;0.70;;;;;;;;;;5035956;28;20386;-86
2023/01/09 11:05:27;;;;;;;1.30;0.57;;;;;;;;;;5034068;28;20900;-85
2023/01/09 11:08:06;;;;;;;2.38;0.70;;;;;;;;;;5034054;28;20474;-85
2023/01/09 11:10:58;;;;;;;2.35;0.70;;;;;;;;;;5033883;28;20467;-85
2023/01/09 11:13:25;;;;;;;3.23;0.60;;;;;;;;;;5029348;28;20489;-86
2023/01/09 11:16:03;;;;;;;2.08;0.77;;;;;;;;;;5033882;28;20426;-85
2023/01/09 11:18:29;;;;;;;2.17;0.63;;;;;;;;;;5033716;28;20990;-85
2023/01/09 11:20:55;;;;;;;1.77;0.80;;;;;;;;;;5033687;28;20383;-85
2023/01/09 11:23:33;;;;;;;2.40;0.80;;;;;;;;;;5033790;28;20410;-84
2023/01/09 11:26:00;;;;;;;2.22;0.90;;;;;;;;;;5030159;28;20480;-85
2023/01/09 11:28:27;;;;;;;3.00;1.10;;;;;;;;;;5026463;28;20420;-86
2023/01/09 11:30:55;;;;;;;3.93;1.40;;;;;;;;;;5032843;28;20482;-86
2023/01/09 11:33:25;;;;;;;3.65;1.30;;;;;;;;;;5033195;28;20424;-85
2023/01/09 11:35:51;;;;;;;2.55;1.15;;;;;;;;;;5033543;28;20419;-84
2023/01/09 11:38:17;;;;;;;2.00;0.70;;;;;;;;;;5033348;28;20379;-85
2023/01/09 11:40:49;;;;;;;3.85;0.77;;;;;;;;;;5032881;28;20888;-83
2023/01/09 11:43:17;;;;;;;2.65;0.88;;;;;;;;;;5032046;28;20795;-85
2023/01/09 11:45:52;;;;;;;1.98;0.63;;;;;;;;;;5031999;28;20386;-85
2023/01/09 11:48:19;;;;;;;2.65;0.90;;;;;;;;;;5033240;28;20438;-85
2023/01/09 11:50:53;;;;;;;2.25;0.90;;;;;;;;;;5033081;28;20410;-84
2023/01/09 11:53:20;;;;;;;2.73;0.80;;;;;;;;;;5033138;28;20413;-84
2023/01/09 11:55:49;;;;;;;2.42;0.70;;;;;;;;;;5033167;28;20419;-84
2023/01/09 11:58:16;;;;;;;2.72;0.70;;;;;;;;;;5033126;28;20894;-86
2023/01/09 12:01:01;;;;;;;4.25;0.90;;;;;;;;;;5032012;28;20882;-85
2023/01/09 12:03:37;;;;;;;2.90;0.73;;;;;;;;;;5032696;28;20953;-85
2023/01/09 12:06:08;;;;;;;1.67;0.70;;;;;;;;;;5032939;28;20428;-84
2023/01/09 12:08:41;;;;;;;2.33;0.70;;;;;;;;;;5032945;28;20500;-84
2023/01/09 12:11:33;;;;;;;2.42;0.77;;;;;;;;;;5034806;28;20438;-84
2023/01/09 12:14:11;;;;;;;2.90;0.75;;;;;;;;;;5048145;28;20439;-84
2023/01/09 12:16:58;;;;;;;2.40;0.88;;;;;;;;;;5052673;28;20480;-84
2023/01/09 12:19:24;;;;;;;2.05;0.95;;;;;;;;;;5052423;28;20378;-83
2023/01/09 12:21:50;;;;;;;2.53;0.80;;;;;;;;;;5052476;28;20389;-83
2023/01/09 12:24:22;;;;;;;2.33;0.70;;;;;;;;;;5052447;28;20467;-84
2023/01/09 12:27:03;;;;;;;1.17;0.65;;;;;;;;;;5052385;28;20913;-83
2023/01/09 12:29:36;;;;;;;2.03;0.80;;;;;;;;;;5052286;28;20401;-83
2023/01/09 12:32:05;;;;;;;1.35;0.70;;;;;;;;;;5034510;28;20728;-83
2023/01/09 12:34:37;;;;;;;3.33;0.70;;;;;;;;;;5052442;28;20859;-83
2023/01/09 12:37:09;;;;;;;2.55;0.82;;;;;;;;;;5052154;28;20409;-83
2023/01/09 12:39:59;;;;;;;2.38;0.75;;;;;;;;;;5037009;28;20436;-83
2023/01/09 12:42:44;;;;;;;1.97;0.80;;;;;;;;;;5027500;28;20551;-85
2023/01/09 12:45:25;;;;;;;3.60;1.23;;;;;;;;;;5030815;28;20498;-84
2023/01/09 12:47:52;;;;;;;2.67;0.80;;;;;;;;;;5032072;28;20427;-85
2023/01/09 12:50:27;;;;;;;2.28;0.70;;;;;;;;;;5031981;28;20391;-85
2023/01/09 12:53:08;;;;;;;1.98;0.90;;;;;;;;;;5031923;28;20424;-83
2023/01/09 12:55:37;;;;;;;3.43;1.13;;;;;;;;;;5034418;28;20737;-84
2023/01/09 12:58:08;;;;;;;3.50;2.00;;;;;;;;;;5030604;28;20861;-84
2023/01/09 13:00:38;;;;;;;2.70;1.20;;;;;;;;;;5031908;28;20482;-84
2023/01/09 13:03:13;;;;;;;1.42;0.73;;;;;;;;;;5031835;28;20531;-85
2023/01/09 13:05:41;;;;;;;3.08;1.00;;;;;;;;;;5042640;28;20430;-85
2023/01/09 13:08:10;;;;;;;1.35;0.85;;;;;;;;;;5035033;28;20456;-84
2023/01/09 13:10:40;;;;;;;1.83;0.70;;;;;;;;;;5031819;28;20420;-84
2023/01/09 13:13:12;;;;;;;1.98;0.98;;;;;;;;;;5031938;28;20996;-83
2023/01/09 13:15:38;;;;;;;2.25;0.80;;;;;;;;;;5035318;28;20975;-83
2023/01/09 13:18:07;;;;;;;1.95;1.30;;;;;;;;;;5035480;28;20387;-84
2023/01/09 13:20:35;;;;;;;2.30;0.70;;;;;;;;;;5033641;28;20428;-84
2023/01/09 13:23:02;;;;;;;1.85;1.35;;;;;;;;;;5032037;28;20519;-83
2023/01/09 13:25:34;;;;;;;2.37;1.40;;;;;;;;;;5031747;28;20393;-85
2023/01/09 13:28:02;;;;;;;2.50;1.15;;;;;;;;;;5032050;28;20406;-84
2023/01/09 13:30:37;;;;;;;2.28;0.82;;;;;;;;;;5031636;28;20379;-84
2023/01/09 13:33:06;;;;;;;1.70;0.60;;;;;;;;;;5031747;28;20427;-84
2023/01/09 13:35:32;;;;;;;1.20;0.60;;;;;;;;;;5028731;28;20995;-84
2023/01/09 13:37:58;;;;;;;1.65;0.80;;;;;;;;;;5024556;28;20464;-83
2023/01/09 13:40:25;;;;;;;1.77;0.60;;;;;;;;;;5051320;28;20420;-84
2023/01/09 13:43:12;;;;;;;1.60;0.60;;;;;;;;;;5033823;28;20393;-83
2023/01/09 13:45:39;;;;;;;2.00;0.68;;;;;;;;;;5051599;28;20426;-82
2023/01/09 13:48:08;;;;;;;2.55;0.70;;;;;;;;;;5051544;28;20389;-83
2023/01/09 13:50:35;;;;;;;1.63;0.73;;;;;;;;;;5051370;28;20791;-83
2023/01/09 13:53:19;;;;;;;1.58;0.60;;;;;;;;;;5051442;28;20386;-83
2023/01/09 13:56:13;;;;;;;1.13;0.60;;;;;;;;;;5053964;28;20414;-83
2023/01/09 13:58:39;;;;;;;1.38;0.60;;;;;;;;;;5052237;28;20447;-83
2023/01/09 14:01:36;;;;;;;1.92;0.70;;;;;;;;;;5020955;28;20461;-83
2023/01/09 14:04:14;;;;;;;1.67;0.80;;;;;;;;;;5025581;28;20421;-84
2023/01/09 14:06:43;;;;;;;1.30;0.63;;;;;;;;;;5034316;28;20395;-84
2023/01/09 14:09:18;;;;;;;1.60;0.40;;;;;;;;;;5055000;28;20373;-84
2023/01/09 14:11:45;;;;;;;2.05;0.70;;;;;;;;;;5055033;28;20866;-84
2023/01/09 14:14:25;;;;;;;1.35;0.70;;;;;;;;;;5054863;28;20407;-85
2023/01/09 14:16:51;;;;;;;3.10;0.70;;;;;;;;;;5037094;28;20534;-85
2023/01/09 14:19:21;;;;;;;1.58;0.68;;;;;;;;;;5054981;28;20389;-84
2023/01/09 14:21:49;;;;;;;2.42;0.85;;;;;;;;;;5054870;28;20394;-84
2023/01/09 14:24:20;;;;;;;2.90;0.73;;;;;;;;;;5054676;28;20531;-84
2023/01/09 14:26:48;;;;;;;3.20;1.15;;;;;;;;;;5054745;28;20383;-84
2023/01/09 14:29:32;;;;;;;2.92;1.00;;;;;;;;;;5054648;28;20413;-84
2023/01/09 14:32:17;;;;;;;2.25;0.88;;;;;;;;;;5053720;28;20999;-83
2023/01/09 14:34:43;;;;;;;2.20;0.60;;;;;;;;;;5030860;28;20458;-83
2023/01/09 14:37:11;;;;;;;3.08;0.80;;;;;;;;;;5028151;28;20441;-84
2023/01/09 14:39:39;;;;;;;3.83;1.00;;;;;;;;;;5023981;28;20406;-84
2023/01/09 14:42:07;;;;;;;3.00;0.90;;;;;;;;;;5028499;28;20383;-83
2023/01/09 14:44:51;;;;;;;2.75;1.02;;;;;;;;;;5034263;28;20410;-83
2023/01/09 14:47:23;;;;;;;2.13;0.90;;;;;;;;;;5026066;28;20432;-83
2023/01/09 14:49:53;;;;;;;3.42;0.98;;;;;;;;;;5020869;28;20399;-84
2023/01/09 14:52:30;;;;;;;4.00;1.08;;;;;;;;;;5034194;28;20424;-83
2023/01/09 14:54:58;;;;;;;2.63;0.90;;;;;;;;;;5034302;28;20537;-83
2023/01/09 14:57:24;;;;;;;4.07;1.02;;;;;;;;;;5036474;28;20424;-84
2023/01/09 15:00:01;;;;;;;3.40;0.95;;;;;;;;;;5034011;28;20868;-83
2023/01/09 15:02:28;;;;;;;3.08;0.70;;;;;;;;;;5026572;28;20425;-83
2023/01/09 15:04:56;;;;;;;2.65;0.90;;;;;;;;;;5033948;28;20411;-84
2023/01/09 15:07:29;;;;;;;2.15;0.77;;;;;;;;;;5033900;28;20418;-84